sensor_id;sensor_type;location;lat;lon;timestamp;P1;durP1;ratioP1;P2;durP2;ratioP2
12467;SDS011;57850;52.922;6.256;2023-04-03T00:01:15;3.10;;;1.10;;
12467;SDS011;57850;52.922;6.256;2023-04-03T00:03:42;1.17;;;0.93;;
12467;SDS011;57850;52.922;6.256;2023-04-03T00:06:09;1.80;;;1.30;;
12467;SDS011;57850;52.922;6.256;2023-04-03T00:08:39;1.30;;;1.07;;
12467;SDS011;57850;52.922;6.256;2023-04-03T00:11:06;2.17;;;1.20;;
12467;SDS011;57850;52.922;6.256;2023-04-03T00:13:33;1.33;;;1.10;;
12467;SDS011;57850;52.922;6.256;2023-04-03T00:16:00;1.53;;;1.07;;
12467;SDS011;57850;52.922;6.256;2023-04-03T00:18:28;3.97;;;1.10;;
12467;SDS011;57850;52.922;6.256;2023-04-03T00:20:54;3.00;;;1.30;;
12467;SDS011;57850;52.922;6.256;2023-04-03T00:23:21;2.70;;;1.00;;
12467;SDS011;57850;52.922;6.256;2023-04-03T00:25:49;1.17;;;1.03;;
12467;SDS011;57850;52.922;6.256;2023-04-03T00:28:16;2.57;;;1.20;;
12467;SDS011;57850;52.922;6.256;2023-04-03T00:30:43;3.77;;;1.40;;
12467;SDS011;57850;52.922;6.256;2023-04-03T00:33:10;3.40;;;1.10;;
12467;SDS011;57850;52.922;6.256;2023-04-03T00:35:38;3.03;;;1.67;;
12467;SDS011;57850;52.922;6.256;2023-04-03T00:38:05;2.80;;;1.40;;
12467;SDS011;57850;52.922;6.256;2023-04-03T00:40:33;3.00;;;1.37;;
12467;SDS011;57850;52.922;6.256;2023-04-03T00:43:05;2.70;;;1.53;;
12467;SDS011;57850;52.922;6.256;2023-04-03T00:45:38;1.43;;;1.30;;
12467;SDS011;57850;52.922;6.256;2023-04-03T00:48:06;2.20;;;1.20;;
12467;SDS011;57850;52.922;6.256;2023-04-03T00:50:38;7.63;;;1.17;;
12467;SDS011;57850;52.922;6.256;2023-04-03T00:53:06;1.37;;;1.13;;
12467;SDS011;57850;52.922;6.256;2023-04-03T00:55:38;2.13;;;1.30;;
12467;SDS011;57850;52.922;6.256;2023-04-03T00:58:06;4.33;;;1.10;;
12467;SDS011;57850;52.922;6.256;2023-04-03T01:00:34;2.23;;;1.20;;
12467;SDS011;57850;52.922;6.256;2023-04-03T01:03:03;1.73;;;1.30;;
12467;SDS011;57850;52.922;6.256;2023-04-03T01:05:30;2.73;;;1.50;;
12467;SDS011;57850;52.922;6.256;2023-04-03T01:07:56;1.93;;;1.50;;
12467;SDS011;57850;52.922;6.256;2023-04-03T01:10:24;3.33;;;1.47;;
12467;SDS011;57850;52.922;6.256;2023-04-03T01:12:51;2.70;;;1.47;;
12467;SDS011;57850;52.922;6.256;2023-04-03T01:15:20;4.00;;;1.60;;
12467;SDS011;57850;52.922;6.256;2023-04-03T01:17:49;1.70;;;1.40;;
12467;SDS011;57850;52.922;6.256;2023-04-03T01:20:31;2.50;;;1.50;;
12467;SDS011;57850;52.922;6.256;2023-04-03T01:23:29;2.53;;;1.40;;
12467;SDS011;57850;52.922;6.256;2023-04-03T01:26:07;1.47;;;1.10;;
12467;SDS011;57850;52.922;6.256;2023-04-03T01:28:35;4.70;;;1.73;;
12467;SDS011;57850;52.922;6.256;2023-04-03T01:31:06;2.90;;;1.33;;
12467;SDS011;57850;52.922;6.256;2023-04-03T01:33:42;3.33;;;1.60;;
12467;SDS011;57850;52.922;6.256;2023-04-03T01:36:10;1.97;;;1.53;;
12467;SDS011;57850;52.922;6.256;2023-04-03T01:38:40;5.73;;;1.90;;
12467;SDS011;57850;52.922;6.256;2023-04-03T01:41:07;1.70;;;1.50;;
12467;SDS011;57850;52.922;6.256;2023-04-03T01:43:33;1.77;;;1.20;;
12467;SDS011;57850;52.922;6.256;2023-04-03T01:46:00;1.60;;;1.47;;
12467;SDS011;57850;52.922;6.256;2023-04-03T01:48:26;2.50;;;1.23;;
12467;SDS011;57850;52.922;6.256;2023-04-03T01:50:54;4.10;;;1.80;;
12467;SDS011;57850;52.922;6.256;2023-04-03T01:53:21;2.77;;;1.57;;
12467;SDS011;57850;52.922;6.256;2023-04-03T01:55:48;1.80;;;1.57;;
12467;SDS011;57850;52.922;6.256;2023-04-03T01:58:14;1.93;;;1.27;;
12467;SDS011;57850;52.922;6.256;2023-04-03T02:00:41;2.60;;;1.40;;
12467;SDS011;57850;52.922;6.256;2023-04-03T02:03:07;6.83;;;1.73;;
12467;SDS011;57850;52.922;6.256;2023-04-03T02:05:34;3.43;;;1.50;;
12467;SDS011;57850;52.922;6.256;2023-04-03T02:08:02;3.53;;;1.60;;
12467;SDS011;57850;52.922;6.256;2023-04-03T02:10:29;3.50;;;1.53;;
12467;SDS011;57850;52.922;6.256;2023-04-03T02:12:56;2.57;;;1.47;;
12467;SDS011;57850;52.922;6.256;2023-04-03T02:15:22;2.07;;;1.50;;
12467;SDS011;57850;52.922;6.256;2023-04-03T02:17:49;5.53;;;1.80;;
12467;SDS011;57850;52.922;6.256;2023-04-03T02:20:15;3.63;;;1.60;;
12467;SDS011;57850;52.922;6.256;2023-04-03T02:22:42;3.23;;;1.50;;
12467;SDS011;57850;52.922;6.256;2023-04-03T02:25:10;2.30;;;1.50;;
12467;SDS011;57850;52.922;6.256;2023-04-03T02:27:37;3.30;;;1.40;;
12467;SDS011;57850;52.922;6.256;2023-04-03T02:30:04;2.43;;;1.40;;
12467;SDS011;57850;52.922;6.256;2023-04-03T02:32:34;4.10;;;1.50;;
12467;SDS011;57850;52.922;6.256;2023-04-03T02:35:00;2.03;;;1.57;;
12467;SDS011;57850;52.922;6.256;2023-04-03T02:37:27;1.93;;;1.30;;
12467;SDS011;57850;52.922;6.256;2023-04-03T02:39:55;2.43;;;1.40;;
12467;SDS011;57850;52.922;6.256;2023-04-03T02:42:22;1.70;;;1.30;;
12467;SDS011;57850;52.922;6.256;2023-04-03T02:44:49;2.27;;;1.77;;
12467;SDS011;57850;52.922;6.256;2023-04-03T02:47:15;7.00;;;1.73;;
12467;SDS011;57850;52.922;6.256;2023-04-03T02:49:42;4.33;;;1.87;;
12467;SDS011;57850;52.922;6.256;2023-04-03T02:52:10;1.63;;;1.43;;
12467;SDS011;57850;52.922;6.256;2023-04-03T02:54:37;2.60;;;1.50;;
12467;SDS011;57850;52.922;6.256;2023-04-03T02:57:03;4.30;;;1.77;;
12467;SDS011;57850;52.922;6.256;2023-04-03T02:59:31;3.37;;;1.60;;
12467;SDS011;57850;52.922;6.256;2023-04-03T03:01:58;3.20;;;1.63;;
12467;SDS011;57850;52.922;6.256;2023-04-03T03:04:25;2.40;;;1.60;;
12467;SDS011;57850;52.922;6.256;2023-04-03T03:06:51;5.90;;;2.10;;
12467;SDS011;57850;52.922;6.256;2023-04-03T03:09:18;3.10;;;1.43;;
12467;SDS011;57850;52.922;6.256;2023-04-03T03:11:45;5.07;;;1.90;;
12467;SDS011;57850;52.922;6.256;2023-04-03T03:14:11;2.47;;;1.50;;
12467;SDS011;57850;52.922;6.256;2023-04-03T03:16:39;3.33;;;1.73;;
12467;SDS011;57850;52.922;6.256;2023-04-03T03:19:06;2.37;;;1.60;;
12467;SDS011;57850;52.922;6.256;2023-04-03T03:21:32;5.43;;;1.80;;
12467;SDS011;57850;52.922;6.256;2023-04-03T03:23:59;2.83;;;1.80;;
12467;SDS011;57850;52.922;6.256;2023-04-03T03:26:25;4.77;;;1.47;;
12467;SDS011;57850;52.922;6.256;2023-04-03T03:28:52;3.13;;;1.60;;
12467;SDS011;57850;52.922;6.256;2023-04-03T03:31:19;7.43;;;2.17;;
12467;SDS011;57850;52.922;6.256;2023-04-03T03:33:46;4.97;;;2.40;;
12467;SDS011;57850;52.922;6.256;2023-04-03T03:36:13;2.27;;;1.83;;
12467;SDS011;57850;52.922;6.256;2023-04-03T03:38:40;6.00;;;1.70;;
12467;SDS011;57850;52.922;6.256;2023-04-03T03:41:07;3.10;;;1.97;;
12467;SDS011;57850;52.922;6.256;2023-04-03T03:43:33;3.73;;;1.90;;
12467;SDS011;57850;52.922;6.256;2023-04-03T03:46:00;4.17;;;1.70;;
12467;SDS011;57850;52.922;6.256;2023-04-03T03:48:26;2.63;;;1.50;;
12467;SDS011;57850;52.922;6.256;2023-04-03T03:50:54;4.37;;;1.87;;
12467;SDS011;57850;52.922;6.256;2023-04-03T03:53:21;4.07;;;2.10;;
12467;SDS011;57850;52.922;6.256;2023-04-03T03:55:47;2.33;;;1.80;;
12467;SDS011;57850;52.922;6.256;2023-04-03T03:58:14;5.67;;;1.67;;
12467;SDS011;57850;52.922;6.256;2023-04-03T04:00:40;2.30;;;1.70;;
12467;SDS011;57850;52.922;6.256;2023-04-03T04:03:07;5.33;;;2.00;;
12467;SDS011;57850;52.922;6.256;2023-04-03T04:05:33;4.53;;;1.87;;
12467;SDS011;57850;52.922;6.256;2023-04-03T04:08:01;4.57;;;1.90;;
12467;SDS011;57850;52.922;6.256;2023-04-03T04:10:28;5.07;;;1.77;;
12467;SDS011;57850;52.922;6.256;2023-04-03T04:12:54;2.67;;;1.70;;
12467;SDS011;57850;52.922;6.256;2023-04-03T04:15:21;4.27;;;1.90;;
12467;SDS011;57850;52.922;6.256;2023-04-03T04:17:48;3.47;;;2.20;;
12467;SDS011;57850;52.922;6.256;2023-04-03T04:20:14;3.90;;;2.33;;
12467;SDS011;57850;52.922;6.256;2023-04-03T04:22:41;4.33;;;1.90;;
12467;SDS011;57850;52.922;6.256;2023-04-03T04:25:09;5.77;;;2.00;;
12467;SDS011;57850;52.922;6.256;2023-04-03T04:27:36;3.50;;;2.07;;
12467;SDS011;57850;52.922;6.256;2023-04-03T04:30:03;4.33;;;2.17;;
12467;SDS011;57850;52.922;6.256;2023-04-03T04:32:30;3.67;;;2.20;;
12467;SDS011;57850;52.922;6.256;2023-04-03T04:34:57;6.83;;;1.97;;
12467;SDS011;57850;52.922;6.256;2023-04-03T04:37:23;6.53;;;3.70;;
12467;SDS011;57850;52.922;6.256;2023-04-03T04:39:50;4.33;;;2.23;;
12467;SDS011;57850;52.922;6.256;2023-04-03T04:42:17;4.93;;;2.47;;
12467;SDS011;57850;52.922;6.256;2023-04-03T04:44:44;4.73;;;2.20;;
12467;SDS011;57850;52.922;6.256;2023-04-03T04:47:11;2.60;;;1.80;;
12467;SDS011;57850;52.922;6.256;2023-04-03T04:49:37;4.40;;;2.60;;
12467;SDS011;57850;52.922;6.256;2023-04-03T04:52:04;3.33;;;2.43;;
12467;SDS011;57850;52.922;6.256;2023-04-03T04:54:31;6.70;;;2.67;;
12467;SDS011;57850;52.922;6.256;2023-04-03T04:56:57;5.20;;;1.97;;
12467;SDS011;57850;52.922;6.256;2023-04-03T04:59:25;3.13;;;2.10;;
12467;SDS011;57850;52.922;6.256;2023-04-03T05:01:52;6.57;;;1.93;;
12467;SDS011;57850;52.922;6.256;2023-04-03T05:04:19;3.30;;;2.07;;
12467;SDS011;57850;52.922;6.256;2023-04-03T05:06:46;3.43;;;2.20;;
12467;SDS011;57850;52.922;6.256;2023-04-03T05:09:12;4.87;;;2.27;;
12467;SDS011;57850;52.922;6.256;2023-04-03T05:11:39;4.47;;;2.07;;
12467;SDS011;57850;52.922;6.256;2023-04-03T05:14:06;4.80;;;2.40;;
12467;SDS011;57850;52.922;6.256;2023-04-03T05:16:34;5.30;;;2.23;;
12467;SDS011;57850;52.922;6.256;2023-04-03T05:19:00;6.07;;;2.67;;
12467;SDS011;57850;52.922;6.256;2023-04-03T05:21:27;5.90;;;2.30;;
12467;SDS011;57850;52.922;6.256;2023-04-03T05:23:57;8.50;;;2.87;;
12467;SDS011;57850;52.922;6.256;2023-04-03T05:26:23;7.30;;;2.60;;
12467;SDS011;57850;52.922;6.256;2023-04-03T05:28:50;6.73;;;2.10;;
12467;SDS011;57850;52.922;6.256;2023-04-03T05:31:17;4.00;;;2.13;;
12467;SDS011;57850;52.922;6.256;2023-04-03T05:33:44;5.83;;;2.43;;
12467;SDS011;57850;52.922;6.256;2023-04-03T05:36:11;3.60;;;2.40;;
12467;SDS011;57850;52.922;6.256;2023-04-03T05:38:38;6.07;;;2.50;;
12467;SDS011;57850;52.922;6.256;2023-04-03T05:41:05;8.87;;;2.57;;
12467;SDS011;57850;52.922;6.256;2023-04-03T05:43:32;5.87;;;2.27;;
12467;SDS011;57850;52.922;6.256;2023-04-03T05:45:59;6.00;;;2.27;;
12467;SDS011;57850;52.922;6.256;2023-04-03T05:48:26;5.73;;;2.23;;
12467;SDS011;57850;52.922;6.256;2023-04-03T05:50:54;6.57;;;2.83;;
12467;SDS011;57850;52.922;6.256;2023-04-03T05:53:21;4.07;;;2.40;;
12467;SDS011;57850;52.922;6.256;2023-04-03T05:55:50;4.27;;;2.80;;
12467;SDS011;57850;52.922;6.256;2023-04-03T05:58:17;6.80;;;2.57;;
12467;SDS011;57850;52.922;6.256;2023-04-03T06:00:43;6.63;;;2.53;;
12467;SDS011;57850;52.922;6.256;2023-04-03T06:03:10;5.50;;;2.77;;
12467;SDS011;57850;52.922;6.256;2023-04-03T06:05:36;7.97;;;2.70;;
12467;SDS011;57850;52.922;6.256;2023-04-03T06:08:04;3.67;;;2.50;;
12467;SDS011;57850;52.922;6.256;2023-04-03T06:10:31;6.27;;;3.03;;
12467;SDS011;57850;52.922;6.256;2023-04-03T06:12:58;5.40;;;2.40;;
12467;SDS011;57850;52.922;6.256;2023-04-03T06:15:25;5.03;;;2.30;;
12467;SDS011;57850;52.922;6.256;2023-04-03T06:17:51;6.07;;;2.70;;
12467;SDS011;57850;52.922;6.256;2023-04-03T06:20:18;7.07;;;3.10;;
12467;SDS011;57850;52.922;6.256;2023-04-03T06:22:44;4.17;;;2.47;;
12467;SDS011;57850;52.922;6.256;2023-04-03T06:25:12;5.87;;;2.50;;
12467;SDS011;57850;52.922;6.256;2023-04-03T06:27:39;4.53;;;2.73;;
12467;SDS011;57850;52.922;6.256;2023-04-03T06:30:06;4.63;;;2.47;;
12467;SDS011;57850;52.922;6.256;2023-04-03T06:32:33;6.53;;;2.47;;
12467;SDS011;57850;52.922;6.256;2023-04-03T06:35:00;6.47;;;2.73;;
12467;SDS011;57850;52.922;6.256;2023-04-03T06:37:26;4.93;;;2.47;;
12467;SDS011;57850;52.922;6.256;2023-04-03T06:39:53;4.00;;;2.50;;
12467;SDS011;57850;52.922;6.256;2023-04-03T06:42:22;4.70;;;2.53;;
12467;SDS011;57850;52.922;6.256;2023-04-03T06:44:48;7.63;;;2.83;;
12467;SDS011;57850;52.922;6.256;2023-04-03T06:47:15;5.50;;;3.00;;
12467;SDS011;57850;52.922;6.256;2023-04-03T06:49:42;5.30;;;3.20;;
12467;SDS011;57850;52.922;6.256;2023-04-03T06:52:09;6.10;;;2.73;;
12467;SDS011;57850;52.922;6.256;2023-04-03T06:54:38;4.87;;;2.50;;
12467;SDS011;57850;52.922;6.256;2023-04-03T06:57:05;5.27;;;2.50;;
12467;SDS011;57850;52.922;6.256;2023-04-03T06:59:33;5.17;;;2.70;;
12467;SDS011;57850;52.922;6.256;2023-04-03T07:02:01;6.17;;;2.83;;
12467;SDS011;57850;52.922;6.256;2023-04-03T07:04:28;9.67;;;2.97;;
12467;SDS011;57850;52.922;6.256;2023-04-03T07:06:54;6.10;;;2.70;;
12467;SDS011;57850;52.922;6.256;2023-04-03T07:09:21;5.83;;;2.50;;
12467;SDS011;57850;52.922;6.256;2023-04-03T07:11:48;6.43;;;2.67;;
12467;SDS011;57850;52.922;6.256;2023-04-03T07:14:14;5.37;;;2.50;;
12467;SDS011;57850;52.922;6.256;2023-04-03T07:16:42;6.27;;;2.53;;
12467;SDS011;57850;52.922;6.256;2023-04-03T07:19:08;5.30;;;2.67;;
12467;SDS011;57850;52.922;6.256;2023-04-03T07:21:35;4.57;;;2.10;;
12467;SDS011;57850;52.922;6.256;2023-04-03T07:24:02;9.73;;;2.17;;
12467;SDS011;57850;52.922;6.256;2023-04-03T07:26:29;4.60;;;2.50;;
12467;SDS011;57850;52.922;6.256;2023-04-03T07:28:56;7.73;;;2.97;;
12467;SDS011;57850;52.922;6.256;2023-04-03T07:31:23;4.70;;;2.53;;
12467;SDS011;57850;52.922;6.256;2023-04-03T07:33:51;7.37;;;2.40;;
12467;SDS011;57850;52.922;6.256;2023-04-03T07:36:18;3.47;;;2.20;;
12467;SDS011;57850;52.922;6.256;2023-04-03T07:38:46;5.97;;;3.17;;
12467;SDS011;57850;52.922;6.256;2023-04-03T07:41:14;8.97;;;2.40;;
12467;SDS011;57850;52.922;6.256;2023-04-03T07:43:42;7.27;;;2.17;;
12467;SDS011;57850;52.922;6.256;2023-04-03T07:46:09;6.00;;;2.20;;
12467;SDS011;57850;52.922;6.256;2023-04-03T07:48:35;4.97;;;2.00;;
12467;SDS011;57850;52.922;6.256;2023-04-03T07:51:04;5.40;;;2.00;;
12467;SDS011;57850;52.922;6.256;2023-04-03T07:53:31;5.03;;;2.27;;
12467;SDS011;57850;52.922;6.256;2023-04-03T07:55:58;4.63;;;1.73;;
12467;SDS011;57850;52.922;6.256;2023-04-03T07:58:27;6.37;;;1.87;;
12467;SDS011;57850;52.922;6.256;2023-04-03T08:00:54;3.47;;;1.77;;
12467;SDS011;57850;52.922;6.256;2023-04-03T08:03:21;3.17;;;1.80;;
12467;SDS011;57850;52.922;6.256;2023-04-03T08:05:48;3.00;;;1.80;;
12467;SDS011;57850;52.922;6.256;2023-04-03T08:08:17;2.93;;;2.07;;
12467;SDS011;57850;52.922;6.256;2023-04-03T08:10:47;4.67;;;1.83;;
12467;SDS011;57850;52.922;6.256;2023-04-03T08:13:14;3.03;;;1.60;;
12467;SDS011;57850;52.922;6.256;2023-04-03T08:15:41;4.30;;;2.27;;
12467;SDS011;57850;52.922;6.256;2023-04-03T08:18:08;6.27;;;1.50;;
12467;SDS011;57850;52.922;6.256;2023-04-03T08:20:35;7.10;;;2.40;;
12467;SDS011;57850;52.922;6.256;2023-04-03T08:23:02;3.13;;;1.77;;
12467;SDS011;57850;52.922;6.256;2023-04-03T08:25:30;2.90;;;1.77;;
12467;SDS011;57850;52.922;6.256;2023-04-03T08:27:56;4.50;;;1.80;;
12467;SDS011;57850;52.922;6.256;2023-04-03T08:30:23;3.58;;;1.65;;
12467;SDS011;57850;52.922;6.256;2023-04-03T08:32:50;2.83;;;1.48;;
12467;SDS011;57850;52.922;6.256;2023-04-03T08:35:16;2.88;;;1.40;;
12467;SDS011;57850;52.922;6.256;2023-04-03T08:37:44;2.13;;;1.27;;
12467;SDS011;57850;52.922;6.256;2023-04-03T08:40:13;6.55;;;1.77;;
12467;SDS011;57850;52.922;6.256;2023-04-03T08:42:44;3.33;;;1.63;;
12467;SDS011;57850;52.922;6.256;2023-04-03T08:45:19;4.57;;;1.98;;
12467;SDS011;57850;52.922;6.256;2023-04-03T08:47:55;2.75;;;1.27;;
12467;SDS011;57850;52.922;6.256;2023-04-03T08:50:31;3.13;;;1.33;;
12467;SDS011;57850;52.922;6.256;2023-04-03T08:53:02;3.88;;;1.60;;
12467;SDS011;57850;52.922;6.256;2023-04-03T08:55:32;2.85;;;1.40;;
12467;SDS011;57850;52.922;6.256;2023-04-03T08:58:02;3.30;;;1.65;;
12467;SDS011;57850;52.922;6.256;2023-04-03T09:00:32;6.88;;;1.80;;
12467;SDS011;57850;52.922;6.256;2023-04-03T09:03:04;3.08;;;1.60;;
12467;SDS011;57850;52.922;6.256;2023-04-03T09:05:35;3.90;;;1.40;;
12467;SDS011;57850;52.922;6.256;2023-04-03T09:08:12;3.72;;;1.60;;
12467;SDS011;57850;52.922;6.256;2023-04-03T09:10:45;2.72;;;1.50;;
12467;SDS011;57850;52.922;6.256;2023-04-03T09:13:17;2.25;;;1.20;;
12467;SDS011;57850;52.922;6.256;2023-04-03T09:15:50;2.00;;;1.40;;
12467;SDS011;57850;52.922;6.256;2023-04-03T09:18:19;2.05;;;1.27;;
12467;SDS011;57850;52.922;6.256;2023-04-03T09:20:53;2.55;;;1.40;;
12467;SDS011;57850;52.922;6.256;2023-04-03T09:23:26;2.53;;;1.40;;
12467;SDS011;57850;52.922;6.256;2023-04-03T09:25:58;1.70;;;1.48;;
12467;SDS011;57850;52.922;6.256;2023-04-03T09:28:31;3.70;;;1.55;;
12467;SDS011;57850;52.922;6.256;2023-04-03T09:31:01;3.15;;;1.60;;
12467;SDS011;57850;52.922;6.256;2023-04-03T09:33:35;5.88;;;1.83;;
12467;SDS011;57850;52.922;6.256;2023-04-03T09:36:02;3.67;;;1.63;;
12467;SDS011;57850;52.922;6.256;2023-04-03T09:38:28;2.70;;;1.55;;
12467;SDS011;57850;52.922;6.256;2023-04-03T09:41:02;3.60;;;1.88;;
12467;SDS011;57850;52.922;6.256;2023-04-03T09:43:33;2.20;;;1.50;;
12467;SDS011;57850;52.922;6.256;2023-04-03T09:48:56;1.50;;;1.40;;
12467;SDS011;57850;52.922;6.256;2023-04-03T09:51:27;1.33;;;1.23;;
12467;SDS011;57850;52.922;6.256;2023-04-03T09:53:56;2.22;;;1.50;;
12467;SDS011;57850;52.922;6.256;2023-04-03T09:56:24;1.75;;;1.40;;
12467;SDS011;57850;52.922;6.256;2023-04-03T09:59:05;1.48;;;1.38;;
12467;SDS011;57850;52.922;6.256;2023-04-03T10:01:38;2.38;;;1.40;;
12467;SDS011;57850;52.922;6.256;2023-04-03T10:04:24;1.50;;;1.27;;
12467;SDS011;57850;52.922;6.256;2023-04-03T10:06:51;4.63;;;1.88;;
12467;SDS011;57850;52.922;6.256;2023-04-03T10:09:20;2.35;;;1.50;;
12467;SDS011;57850;52.922;6.256;2023-04-03T10:11:58;2.17;;;1.40;;
12467;SDS011;57850;52.922;6.256;2023-04-03T10:14:31;1.50;;;1.40;;
12467;SDS011;57850;52.922;6.256;2023-04-03T10:17:00;1.50;;;1.20;;
12467;SDS011;57850;52.922;6.256;2023-04-03T10:19:36;1.08;;;1.00;;
12467;SDS011;57850;52.922;6.256;2023-04-03T10:22:13;3.05;;;1.20;;
12467;SDS011;57850;52.922;6.256;2023-04-03T10:24:58;3.25;;;2.03;;
12467;SDS011;57850;52.922;6.256;2023-04-03T10:27:32;3.33;;;3.00;;
12467;SDS011;57850;52.922;6.256;2023-04-03T10:30:13;1.95;;;1.30;;
12467;SDS011;57850;52.922;6.256;2023-04-03T10:32:58;1.85;;;1.48;;
12467;SDS011;57850;52.922;6.256;2023-04-03T10:35:42;3.30;;;1.75;;
12467;SDS011;57850;52.922;6.256;2023-04-03T10:38:15;2.28;;;1.80;;
12467;SDS011;57850;52.922;6.256;2023-04-03T10:40:52;3.30;;;1.98;;
12467;SDS011;57850;52.922;6.256;2023-04-03T10:43:28;5.07;;;3.22;;
12467;SDS011;57850;52.922;6.256;2023-04-03T10:46:02;1.48;;;1.30;;
12467;SDS011;57850;52.922;6.256;2023-04-03T10:48:37;2.40;;;1.60;;
12467;SDS011;57850;52.922;6.256;2023-04-03T10:51:16;2.30;;;1.30;;
12467;SDS011;57850;52.922;6.256;2023-04-03T10:53:52;2.95;;;1.30;;
12467;SDS011;57850;52.922;6.256;2023-04-03T10:56:30;2.00;;;1.50;;
12467;SDS011;57850;52.922;6.256;2023-04-03T10:59:02;4.35;;;1.55;;
12467;SDS011;57850;52.922;6.256;2023-04-03T11:01:44;3.58;;;1.17;;
12467;SDS011;57850;52.922;6.256;2023-04-03T11:04:12;2.80;;;1.35;;
12467;SDS011;57850;52.922;6.256;2023-04-03T11:06:45;3.13;;;1.52;;
12467;SDS011;57850;52.922;6.256;2023-04-03T11:09:19;3.42;;;1.42;;
12467;SDS011;57850;52.922;6.256;2023-04-03T11:11:52;1.70;;;1.45;;
12467;SDS011;57850;52.922;6.256;2023-04-03T11:14:26;3.38;;;1.75;;
12467;SDS011;57850;52.922;6.256;2023-04-03T11:17:01;3.20;;;1.13;;
12467;SDS011;57850;52.922;6.256;2023-04-03T11:19:35;2.63;;;1.50;;
12467;SDS011;57850;52.922;6.256;2023-04-03T11:22:10;3.22;;;2.10;;
12467;SDS011;57850;52.922;6.256;2023-04-03T11:24:52;3.72;;;1.42;;
12467;SDS011;57850;52.922;6.256;2023-04-03T11:27:24;2.67;;;1.42;;
12467;SDS011;57850;52.922;6.256;2023-04-03T11:29:55;2.88;;;1.50;;
12467;SDS011;57850;52.922;6.256;2023-04-03T11:32:32;4.65;;;2.17;;
12467;SDS011;57850;52.922;6.256;2023-04-03T11:35:14;2.55;;;1.63;;
12467;SDS011;57850;52.922;6.256;2023-04-03T11:37:41;2.88;;;1.52;;
12467;SDS011;57850;52.922;6.256;2023-04-03T11:40:19;3.15;;;1.52;;
12467;SDS011;57850;52.922;6.256;2023-04-03T11:42:51;3.13;;;1.98;;
12467;SDS011;57850;52.922;6.256;2023-04-03T11:45:31;4.13;;;2.65;;
12467;SDS011;57850;52.922;6.256;2023-04-03T11:48:03;2.55;;;1.50;;
12467;SDS011;57850;52.922;6.256;2023-04-03T11:50:38;2.35;;;1.83;;
12467;SDS011;57850;52.922;6.256;2023-04-03T11:56:03;2.25;;;1.60;;
12467;SDS011;57850;52.922;6.256;2023-04-03T12:01:50;2.97;;;1.80;;
12467;SDS011;57850;52.922;6.256;2023-04-03T12:04:23;2.35;;;1.40;;
12467;SDS011;57850;52.922;6.256;2023-04-03T12:12:39;2.88;;;1.52;;
12467;SDS011;57850;52.922;6.256;2023-04-03T12:24:37;2.20;;;1.50;;
12467;SDS011;57850;52.922;6.256;2023-04-03T12:29:58;2.28;;;1.50;;
12467;SDS011;57850;52.922;6.256;2023-04-03T12:32:36;2.50;;;1.70;;
12467;SDS011;57850;52.922;6.256;2023-04-03T12:35:20;3.42;;;1.85;;
12467;SDS011;57850;52.922;6.256;2023-04-03T12:38:06;2.72;;;1.80;;
12467;SDS011;57850;52.922;6.256;2023-04-03T12:40:49;2.53;;;1.77;;
12467;SDS011;57850;52.922;6.256;2023-04-03T12:43:29;2.33;;;1.73;;
12467;SDS011;57850;52.922;6.256;2023-04-03T12:46:11;2.28;;;1.65;;
12467;SDS011;57850;52.922;6.256;2023-04-03T12:48:46;3.55;;;1.73;;
12467;SDS011;57850;52.922;6.256;2023-04-03T12:51:17;2.92;;;1.70;;
12467;SDS011;57850;52.922;6.256;2023-04-03T12:53:51;1.70;;;1.40;;
12467;SDS011;57850;52.922;6.256;2023-04-03T12:56:26;4.35;;;1.70;;
12467;SDS011;57850;52.922;6.256;2023-04-03T12:58:56;1.90;;;1.80;;
12467;SDS011;57850;52.922;6.256;2023-04-03T13:01:39;4.05;;;2.20;;
12467;SDS011;57850;52.922;6.256;2023-04-03T13:04:06;2.08;;;1.67;;
12467;SDS011;57850;52.922;6.256;2023-04-03T13:06:34;2.03;;;1.77;;
12467;SDS011;57850;52.922;6.256;2023-04-03T13:09:05;3.55;;;1.67;;
12467;SDS011;57850;52.922;6.256;2023-04-03T13:11:45;3.10;;;1.95;;
12467;SDS011;57850;52.922;6.256;2023-04-03T13:14:14;1.92;;;1.50;;
12467;SDS011;57850;52.922;6.256;2023-04-03T13:16:52;2.83;;;1.95;;
12467;SDS011;57850;52.922;6.256;2023-04-03T13:19:19;3.00;;;1.70;;
12467;SDS011;57850;52.922;6.256;2023-04-03T13:21:45;2.90;;;1.58;;
12467;SDS011;57850;52.922;6.256;2023-04-03T13:24:12;2.58;;;1.85;;
12467;SDS011;57850;52.922;6.256;2023-04-03T13:26:39;2.15;;;1.60;;
12467;SDS011;57850;52.922;6.256;2023-04-03T13:29:17;3.05;;;2.00;;
12467;SDS011;57850;52.922;6.256;2023-04-03T13:31:47;2.67;;;2.20;;
12467;SDS011;57850;52.922;6.256;2023-04-03T13:34:21;3.10;;;1.83;;
12467;SDS011;57850;52.922;6.256;2023-04-03T13:37:00;3.05;;;1.90;;
12467;SDS011;57850;52.922;6.256;2023-04-03T13:39:35;3.85;;;1.70;;
12467;SDS011;57850;52.922;6.256;2023-04-03T13:42:14;2.25;;;1.73;;
12467;SDS011;57850;52.922;6.256;2023-04-03T13:44:46;1.90;;;1.70;;
12467;SDS011;57850;52.922;6.256;2023-04-03T13:47:17;2.53;;;1.80;;
12467;SDS011;57850;52.922;6.256;2023-04-03T13:49:58;3.47;;;2.10;;
12467;SDS011;57850;52.922;6.256;2023-04-03T13:52:27;2.15;;;1.70;;
12467;SDS011;57850;52.922;6.256;2023-04-03T13:54:56;4.15;;;2.15;;
12467;SDS011;57850;52.922;6.256;2023-04-03T13:57:24;3.38;;;2.08;;
12467;SDS011;57850;52.922;6.256;2023-04-03T13:59:53;3.03;;;2.20;;
12467;SDS011;57850;52.922;6.256;2023-04-03T14:02:21;3.33;;;2.05;;
12467;SDS011;57850;52.922;6.256;2023-04-03T14:04:50;4.30;;;1.90;;
12467;SDS011;57850;52.922;6.256;2023-04-03T14:07:23;3.83;;;2.20;;
12467;SDS011;57850;52.922;6.256;2023-04-03T14:09:51;2.20;;;1.90;;
12467;SDS011;57850;52.922;6.256;2023-04-03T14:12:19;3.45;;;1.90;;
12467;SDS011;57850;52.922;6.256;2023-04-03T14:14:52;4.18;;;2.30;;
12467;SDS011;57850;52.922;6.256;2023-04-03T14:17:22;3.13;;;1.70;;
12467;SDS011;57850;52.922;6.256;2023-04-03T14:19:52;2.92;;;1.83;;
12467;SDS011;57850;52.922;6.256;2023-04-03T14:22:21;2.88;;;1.98;;
12467;SDS011;57850;52.922;6.256;2023-04-03T14:24:50;3.28;;;2.00;;
12467;SDS011;57850;52.922;6.256;2023-04-03T14:27:19;1.98;;;1.77;;
12467;SDS011;57850;52.922;6.256;2023-04-03T14:29:47;3.60;;;1.95;;
12467;SDS011;57850;52.922;6.256;2023-04-03T14:32:17;3.35;;;1.70;;
12467;SDS011;57850;52.922;6.256;2023-04-03T14:34:44;4.75;;;2.30;;
12467;SDS011;57850;52.922;6.256;2023-04-03T14:37:12;2.50;;;2.15;;
12467;SDS011;57850;52.922;6.256;2023-04-03T14:39:40;5.07;;;2.10;;
12467;SDS011;57850;52.922;6.256;2023-04-03T14:42:11;3.20;;;2.40;;
12467;SDS011;57850;52.922;6.256;2023-04-03T14:44:38;2.47;;;1.90;;
12467;SDS011;57850;52.922;6.256;2023-04-03T14:47:08;3.45;;;2.05;;
12467;SDS011;57850;52.922;6.256;2023-04-03T14:49:37;3.80;;;2.33;;
12467;SDS011;57850;52.922;6.256;2023-04-03T14:52:06;3.35;;;1.90;;
12467;SDS011;57850;52.922;6.256;2023-04-03T14:54:42;4.05;;;2.00;;
12467;SDS011;57850;52.922;6.256;2023-04-03T14:57:09;3.53;;;2.50;;
12467;SDS011;57850;52.922;6.256;2023-04-03T14:59:39;6.32;;;4.70;;
12467;SDS011;57850;52.922;6.256;2023-04-03T15:02:10;2.92;;;1.70;;
12467;SDS011;57850;52.922;6.256;2023-04-03T15:04:49;2.38;;;1.98;;
12467;SDS011;57850;52.922;6.256;2023-04-03T15:07:16;6.22;;;4.65;;
12467;SDS011;57850;52.922;6.256;2023-04-03T15:09:42;3.03;;;1.98;;
12467;SDS011;57850;52.922;6.256;2023-04-03T15:12:10;3.15;;;2.78;;
12467;SDS011;57850;52.922;6.256;2023-04-03T15:14:38;2.13;;;1.70;;
12467;SDS011;57850;52.922;6.256;2023-04-03T15:17:05;3.22;;;1.90;;
12467;SDS011;57850;52.922;6.256;2023-04-03T15:19:33;2.78;;;1.92;;
12467;SDS011;57850;52.922;6.256;2023-04-03T15:22:04;2.47;;;1.50;;
12467;SDS011;57850;52.922;6.256;2023-04-03T15:24:31;3.15;;;2.20;;
12467;SDS011;57850;52.922;6.256;2023-04-03T15:26:57;2.35;;;1.75;;
12467;SDS011;57850;52.922;6.256;2023-04-03T15:29:26;3.20;;;1.83;;